Aeroporto :
LOGIN :

Iscrizione | Disclaimer

   EN    FR    IT 

 










Sommario :    VFR   VFR Marginale   IFR   IFR Intensivo   IFR Molto Intensivo
Visibilità : 
Base nubi : 
>= 8 km
>= 3000ft
5 / 8 km
1000 / 3000 ft
1500m / 5 km
500 / 1000 ft
800 / 1500m
200 / 500 ft
< 800m
< 200 ft
Simboli :   Temporali  Nebbia  Neve Forte  Precipitazioni Forti  Vento > 20 kt
SIGMETs :   Varie  Temporali  Ghiacco  Turbolenza  Onda orograficha  Ceneri Vulcaniche






- Altitudine del aeroporto : 446 ft
- Codice IATA : VNE


LFRV - Vannes-Meucon

ULTIMO METAR :
  • 211700Z AUTO 16004KT 9999 SCT042/// BKN150/// OVC200/// ///TCU 07/06 Q0997

METARs OBSOLETI :
  • 211630Z AUTO 14005KT 9999 FEW015 SCT050 BKN210 07/07 Q0997
  • 211600Z AUTO 16004KT 9999 FEW004 BKN042 OVC052 08/07 Q0997
  • 211530Z AUTO VRB03KT 9999 -RA FEW009/// SCT031/// BKN039/// ///TCU 08/07 Q0997
  • 211500Z AUTO 19003KT 140V240 9999 FEW033/// BKN043/// BKN050/// ///TCU 08/07 Q0997
  • 211430Z AUTO 19009KT 130V270 9999 -RA FEW009/// BKN015/// BKN028/// ///CB 08/07 Q0997

TAF N/A



MetMap, La meteo Aeronautica in un colpo d'occhio ! - Copyright ORBIFLY Dicembre 2007 - Disclaimer

ORBIFLY MET'MAP TEAM :

Programmazione e sviluppo : Alexandra Zaïnal
Concezione e sviluppo : Baudouin d'Aumeries
Co-Programmazione e sviluppo : Marc-Olivier Méhu
Supporto tecnico e logistico : Manuel Goepfert
Aiuto per la traduzione : Arnaldo La Scala

Contatto : metmap@orbifly.com




FONTI E CREDITI :

   NOAA